createdAt,value
2019-03-21T00:01:06.727Z,76.02
2019-03-21T00:03:38.891Z,76.20
2019-03-21T00:06:13.261Z,75.61
2019-03-21T00:08:45.713Z,74.53
2019-03-21T00:11:57.572Z,74.73
2019-03-21T00:14:51.507Z,73.39
2019-03-21T00:17:30.475Z,71.84
2019-03-21T00:20:02.555Z,72.95
2019-03-21T00:22:34.612Z,73.84
2019-03-21T00:25:08.358Z,73.80
2019-03-21T00:27:40.580Z,74.64
2019-03-21T00:30:19.836Z,74.67
2019-03-21T00:32:52.255Z,74.48
2019-03-21T00:35:24.393Z,74.25
2019-03-21T00:37:56.845Z,74.67
2019-03-21T00:40:32.933Z,74.51
2019-03-21T00:43:07.341Z,74.35
2019-03-21T00:45:39.508Z,75.61
2019-03-21T00:48:14.554Z,76.10
2019-03-21T00:50:46.680Z,76.22
2019-03-21T00:53:20.053Z,75.95
2019-03-21T00:55:52.588Z,76.25
2019-03-21T00:58:24.643Z,76.18
2019-03-21T01:00:57.913Z,75.83
2019-03-21T01:03:30.067Z,75.26
2019-03-21T01:06:02.229Z,74.95
2019-03-21T01:08:35.414Z,75.28
2019-03-21T01:11:07.584Z,76.09
2019-03-21T01:13:39.762Z,77.56
2019-03-21T01:16:11.918Z,78.70
2019-03-21T01:18:44.244Z,78.75
2019-03-21T01:21:16.482Z,77.76
2019-03-21T01:23:48.641Z,77.09
2019-03-21T01:26:21.151Z,76.90
2019-03-21T01:28:53.287Z,76.70
2019-03-21T01:31:25.299Z,77.14
2019-03-21T01:33:57.576Z,77.17
2019-03-21T01:36:29.726Z,77.62
2019-03-21T01:39:01.852Z,77.56
2019-03-21T01:41:34.595Z,76.80
2019-03-21T01:44:06.992Z,75.54
2019-03-21T01:46:39.762Z,76.13
2019-03-21T01:49:12.363Z,76.87
2019-03-21T01:51:44.518Z,77.52
2019-03-21T01:54:16.708Z,77.39
2019-03-21T01:56:48.814Z,78.32
2019-03-21T01:59:21.353Z,77.55
2019-03-21T02:01:53.440Z,78.08
2019-03-21T02:04:25.444Z,78.82
2019-03-21T02:06:57.522Z,78.67
2019-03-21T02:09:29.964Z,79.10
2019-03-21T02:12:02.476Z,79.21
2019-03-21T02:14:34.508Z,79.33
2019-03-21T02:17:07.093Z,79.12
2019-03-21T02:19:39.269Z,79.19
2019-03-21T02:22:11.676Z,79.11
2019-03-21T02:24:43.973Z,78.67
2019-03-21T02:27:16.120Z,79.08
2019-03-21T02:29:48.355Z,79.32
2019-03-21T02:32:20.526Z,79.55
2019-03-21T02:34:53.118Z,79.18
2019-03-21T02:37:25.199Z,78.88
2019-03-21T02:39:59.746Z,78.28
2019-03-21T02:42:31.378Z,78.55
2019-03-21T02:45:09.031Z,77.72
2019-03-21T02:47:37.582Z,77.52
2019-03-21T02:50:14.419Z,78.29
2019-03-21T02:52:46.718Z,77.83
2019-03-21T02:55:18.999Z,78.70
2019-03-21T02:57:51.517Z,79.01
2019-03-21T03:00:25.236Z,79.66
2019-03-21T03:02:59.497Z,79.94
2019-03-21T03:05:32.443Z,79.80
2019-03-21T03:08:05.537Z,80.04
2019-03-21T03:10:44.625Z,80.32
2019-03-21T03:13:17.190Z,80.11
2019-03-21T03:15:49.342Z,79.79
2019-03-21T03:18:21.635Z,79.75
2019-03-21T03:20:53.743Z,78.93
2019-03-21T03:23:25.887Z,79.37
2019-03-21T03:25:58.250Z,78.98
2019-03-21T03:28:30.665Z,79.50
2019-03-21T03:31:02.876Z,79.87
2019-03-21T03:33:34.856Z,79.33
2019-03-21T03:36:07.391Z,79.50
2019-03-21T03:38:39.489Z,79.43
2019-03-21T03:41:12.346Z,79.89
2019-03-21T03:43:44.635Z,80.08
2019-03-21T03:46:16.799Z,80.55
2019-03-21T03:48:49.626Z,80.34
2019-03-21T03:51:21.990Z,80.50
2019-03-21T03:53:54.420Z,80.86
2019-03-21T03:59:11.245Z,80.22
2019-03-21T04:01:44.119Z,80.21
2019-03-21T04:04:16.386Z,79.71
2019-03-21T04:06:48.591Z,80.15
2019-03-21T04:09:21.163Z,80.38
2019-03-21T04:11:54.632Z,81.08
2019-03-21T04:14:27.080Z,80.79
2019-03-21T04:16:59.324Z,80.74
2019-03-21T04:19:32.088Z,80.66
2019-03-21T04:22:04.253Z,80.66
2019-03-21T04:24:36.720Z,80.22
2019-03-21T04:27:09.717Z,79.40
2019-03-21T04:29:41.772Z,79.44
2019-03-21T04:32:14.248Z,79.54
2019-03-21T04:34:46.706Z,80.31
2019-03-21T04:37:18.792Z,79.47
2019-03-21T04:39:50.859Z,79.72
2019-03-21T04:42:22.951Z,79.23
2019-03-21T04:44:55.031Z,79.88
2019-03-21T04:47:27.435Z,80.47
2019-03-21T04:49:59.844Z,80.52
2019-03-21T04:52:31.880Z,81.15
2019-03-21T04:55:04.566Z,81.03
2019-03-21T04:57:36.573Z,81.84
2019-03-21T05:00:16.406Z,80.61
2019-03-21T05:02:49.027Z,81.11
2019-03-21T05:05:21.190Z,80.37
2019-03-21T05:07:53.181Z,79.82
2019-03-21T05:10:25.359Z,79.30
2019-03-21T05:12:57.434Z,79.62
2019-03-21T05:15:33.216Z,79.62
2019-03-21T05:18:15.808Z,79.17
2019-03-21T05:20:48.835Z,78.75
2019-03-21T05:23:24.620Z,78.85
2019-03-21T05:25:56.761Z,79.20
2019-03-21T05:28:29.141Z,78.47
2019-03-21T05:31:09.352Z,78.75
2019-03-21T05:33:41.845Z,78.76
2019-03-21T05:36:14.007Z,77.95
2019-03-21T05:38:47.302Z,78.55
2019-03-21T05:41:19.522Z,79.00
2019-03-21T05:44:06.770Z,78.55
2019-03-21T05:46:38.948Z,78.43
2019-03-21T05:49:11.058Z,77.66
2019-03-21T05:51:43.131Z,77.30
2019-03-21T05:54:15.620Z,77.45
2019-03-21T05:56:48.442Z,77.57
2019-03-21T05:59:21.678Z,77.55
2019-03-21T06:01:53.844Z,77.42
2019-03-21T06:04:26.014Z,76.05
2019-03-21T06:07:32.636Z,75.09
2019-03-21T06:10:06.934Z,73.88
2019-03-21T06:12:47.970Z,70.99
2019-03-21T06:15:24.788Z,70.04
2019-03-21T06:19:00.797Z,67.07
2019-03-21T06:22:16.336Z,66.22
2019-03-21T06:25:37.704Z,65.16
2019-03-21T06:28:09.922Z,63.63
2019-03-21T06:30:42.370Z,62.69
2019-03-21T06:33:14.448Z,61.41
2019-03-21T06:35:46.584Z,61.99
2019-03-21T06:38:18.702Z,62.29
2019-03-21T06:40:50.830Z,59.90
2019-03-21T06:43:22.998Z,61.34
2019-03-21T06:45:55.206Z,58.73
2019-03-21T06:48:27.618Z,57.43
2019-03-21T06:50:59.683Z,57.76
2019-03-21T06:53:32.158Z,56.88
2019-03-21T06:56:04.722Z,56.45
2019-03-21T06:58:36.925Z,56.66
2019-03-21T07:01:18.826Z,57.62
2019-03-21T07:03:51.206Z,58.09
2019-03-21T07:06:23.996Z,56.52
2019-03-21T07:08:56.158Z,55.48
2019-03-21T07:11:28.697Z,54.98
2019-03-21T07:14:01.277Z,51.63
2019-03-21T07:16:33.536Z,48.59
2019-03-21T07:19:05.676Z,49.24
2019-03-21T07:21:38.086Z,50.50
2019-03-21T07:24:10.086Z,47.71
2019-03-21T07:26:42.163Z,44.77
2019-03-21T07:29:14.664Z,45.80
2019-03-21T07:31:46.733Z,46.12
2019-03-21T07:34:19.104Z,47.79
2019-03-21T07:36:51.173Z,45.88
2019-03-21T07:39:23.764Z,46.47
2019-03-21T07:41:55.905Z,45.20
2019-03-21T07:44:27.998Z,46.46
2019-03-21T07:47:11.785Z,44.42
2019-03-21T07:49:33.999Z,44.54
2019-03-21T07:52:06.515Z,45.41
2019-03-21T07:54:38.848Z,44.09
2019-03-21T07:57:11.265Z,44.56
2019-03-21T07:59:43.416Z,43.93
2019-03-21T08:02:15.538Z,43.23
2019-03-21T08:04:47.820Z,43.75
2019-03-21T08:07:20.055Z,43.70
2019-03-21T08:09:52.148Z,41.74
2019-03-21T08:12:24.786Z,41.42
2019-03-21T08:14:56.953Z,41.94
2019-03-21T08:17:29.018Z,40.48
2019-03-21T08:20:01.928Z,41.00
2019-03-21T08:22:34.068Z,41.13
2019-03-21T08:25:07.023Z,41.49
2019-03-21T08:27:39.540Z,42.11
2019-03-21T08:30:27.465Z,39.03
2019-03-21T08:32:59.609Z,39.22
2019-03-21T08:35:32.307Z,40.27
2019-03-21T08:38:05.002Z,38.09
2019-03-21T08:40:37.266Z,39.56
2019-03-21T08:43:09.817Z,40.38
2019-03-21T08:45:41.905Z,40.26
2019-03-21T08:48:13.983Z,36.96
2019-03-21T08:50:46.079Z,36.42
2019-03-21T08:53:18.299Z,37.49
2019-03-21T08:55:50.450Z,35.83
2019-03-21T08:58:22.611Z,34.83
2019-03-21T09:00:55.053Z,35.90
2019-03-21T09:03:27.275Z,35.89
2019-03-21T09:05:59.403Z,36.43
2019-03-21T09:08:32.205Z,34.30
2019-03-21T09:11:04.397Z,33.75
2019-03-21T09:13:36.741Z,35.04
2019-03-21T09:16:10.937Z,35.19
2019-03-21T09:18:42.741Z,34.66
2019-03-21T09:21:19.936Z,35.00
2019-03-21T09:23:49.730Z,34.40
2019-03-21T09:26:22.784Z,35.91
2019-03-21T09:28:54.790Z,34.56
2019-03-21T09:31:27.008Z,35.05
2019-03-21T09:33:59.069Z,36.06
2019-03-21T09:36:31.568Z,36.16
2019-03-21T09:39:05.108Z,35.13
2019-03-21T09:41:37.286Z,34.60
2019-03-21T09:44:09.697Z,36.44
2019-03-21T09:46:50.468Z,35.60
2019-03-21T09:49:15.906Z,34.15
2019-03-21T09:51:48.438Z,34.91
2019-03-21T09:54:20.655Z,32.51
2019-03-21T09:56:53.128Z,33.53
2019-03-21T09:59:25.184Z,33.68
2019-03-21T10:01:57.328Z,31.03
2019-03-21T10:04:30.105Z,32.49
2019-03-21T10:07:02.193Z,33.13
2019-03-21T10:09:35.370Z,31.18
2019-03-21T10:12:08.207Z,33.06
2019-03-21T10:14:40.353Z,34.80
2019-03-21T10:17:12.376Z,33.06
2019-03-21T10:19:44.575Z,31.06
2019-03-21T10:22:16.984Z,34.86
2019-03-21T10:24:49.906Z,33.73
2019-03-21T10:27:22.115Z,33.26
2019-03-21T10:29:54.346Z,34.50
2019-03-21T10:32:26.445Z,32.31
2019-03-21T10:34:58.707Z,30.40
2019-03-21T10:37:32.192Z,30.08
2019-03-21T10:40:04.769Z,29.96
2019-03-21T10:42:37.121Z,30.22
2019-03-21T10:45:09.489Z,31.26
2019-03-21T10:47:41.574Z,29.96
2019-03-21T10:50:18.858Z,30.78
2019-03-21T10:52:51.050Z,28.65
2019-03-21T10:55:23.120Z,31.30
2019-03-21T10:57:55.324Z,30.11
2019-03-21T11:00:27.666Z,28.51
2019-03-21T11:02:59.834Z,29.35
2019-03-21T11:05:32.063Z,28.53
2019-03-21T11:08:04.517Z,29.17
2019-03-21T11:10:36.879Z,29.98
2019-03-21T11:13:09.105Z,28.34
2019-03-21T11:15:41.310Z,29.19
2019-03-21T11:18:13.565Z,28.66
2019-03-21T11:20:45.801Z,28.39
2019-03-21T11:23:18.380Z,28.45
2019-03-21T11:25:50.513Z,28.49
2019-03-21T11:28:22.718Z,28.67
2019-03-21T11:30:55.883Z,28.03
2019-03-21T11:33:27.981Z,26.22
2019-03-21T11:36:00.170Z,27.79
2019-03-21T11:38:32.524Z,28.48
2019-03-21T11:41:04.857Z,26.73
2019-03-21T11:43:37.236Z,27.04
2019-03-21T11:46:09.309Z,26.20
2019-03-21T11:48:41.485Z,28.02
2019-03-21T11:51:13.646Z,27.57
2019-03-21T11:53:45.831Z,25.43
2019-03-21T11:56:18.279Z,25.60
2019-03-21T11:58:50.324Z,27.36
2019-03-21T12:01:22.637Z,26.69
2019-03-21T12:03:55.025Z,27.55
2019-03-21T12:06:28.166Z,28.12
2019-03-21T12:09:00.243Z,27.77
2019-03-21T12:11:33.030Z,25.46
2019-03-21T12:14:05.478Z,25.42
2019-03-21T12:16:37.967Z,25.08
2019-03-21T12:19:10.022Z,26.89
2019-03-21T12:21:43.057Z,25.42
2019-03-21T12:24:15.200Z,25.37
2019-03-21T12:26:47.350Z,25.47
2019-03-21T12:29:19.754Z,27.48
2019-03-21T12:31:52.389Z,26.07
2019-03-21T12:34:24.609Z,27.17
2019-03-21T12:36:56.715Z,24.61
2019-03-21T12:39:29.256Z,25.65
2019-03-21T12:42:01.836Z,26.96
2019-03-21T12:44:34.017Z,27.73
2019-03-21T12:47:06.348Z,26.37
2019-03-21T12:49:38.521Z,26.53
2019-03-21T12:52:11.632Z,26.94
2019-03-21T12:54:43.785Z,27.50
2019-03-21T12:57:15.944Z,28.21
2019-03-21T12:59:48.026Z,27.28
2019-03-21T13:02:31.847Z,25.61
2019-03-21T13:04:54.404Z,24.74
2019-03-21T13:07:26.487Z,25.21
2019-03-21T13:09:58.546Z,25.99
2019-03-21T13:12:30.695Z,24.69
2019-03-21T13:15:02.832Z,25.14
2019-03-21T13:17:35.618Z,25.98
2019-03-21T13:20:08.422Z,25.05
2019-03-21T13:22:52.373Z,24.78
2019-03-21T13:25:14.893Z,23.62
2019-03-21T13:27:47.147Z,25.68
2019-03-21T13:30:19.706Z,25.37
2019-03-21T13:32:52.217Z,25.35
2019-03-21T13:35:32.561Z,24.89
2019-03-21T13:37:58.901Z,24.32
2019-03-21T13:40:30.966Z,25.23
2019-03-21T13:43:03.404Z,24.65
2019-03-21T13:45:35.939Z,26.77
2019-03-21T13:48:08.185Z,24.88
2019-03-21T13:50:40.348Z,24.34
2019-03-21T13:53:18.638Z,23.24
2019-03-21T13:55:46.315Z,25.78
2019-03-21T13:58:18.587Z,24.99
2019-03-21T14:00:50.760Z,23.89
2019-03-21T14:03:25.381Z,23.96
2019-03-21T14:05:56.689Z,23.84
2019-03-21T14:08:29.001Z,23.13
2019-03-21T14:11:01.223Z,23.56
2019-03-21T14:13:33.370Z,23.43
2019-03-21T14:16:05.508Z,25.03
2019-03-21T14:18:37.809Z,25.52
2019-03-21T14:21:10.376Z,25.05
2019-03-21T14:23:43.771Z,25.43
2019-03-21T14:26:16.099Z,24.54
2019-03-21T14:28:48.212Z,25.37
2019-03-21T14:31:20.730Z,25.67
2019-03-21T14:33:52.830Z,27.18
2019-03-21T14:36:25.355Z,25.23
2019-03-21T14:38:58.077Z,25.38
2019-03-21T14:41:30.217Z,25.26
2019-03-21T14:44:02.985Z,25.13
2019-03-21T14:46:35.129Z,25.11
2019-03-21T14:49:07.521Z,25.24
2019-03-21T14:51:39.653Z,25.06
2019-03-21T14:54:11.743Z,25.76
2019-03-21T14:56:43.815Z,25.60
2019-03-21T14:59:15.891Z,25.30
2019-03-21T15:01:48.233Z,25.19
2019-03-21T15:04:20.459Z,26.01
2019-03-21T15:06:52.535Z,24.99
2019-03-21T15:09:24.615Z,25.73
2019-03-21T15:11:56.768Z,25.52
2019-03-21T15:14:31.719Z,24.63
2019-03-21T15:17:02.861Z,25.28
2019-03-21T15:19:36.280Z,26.44
2019-03-21T15:22:08.485Z,24.91
2019-03-21T15:24:40.549Z,26.56
2019-03-21T15:27:12.779Z,26.45
2019-03-21T15:29:44.911Z,25.04
2019-03-21T15:32:17.141Z,24.98
2019-03-21T15:34:50.265Z,24.53
2019-03-21T15:37:23.185Z,25.83
2019-03-21T15:39:55.564Z,24.93
2019-03-21T15:42:27.709Z,25.99
2019-03-21T15:45:15.466Z,26.49
2019-03-21T15:47:34.801Z,26.08
2019-03-21T15:50:09.442Z,27.13
2019-03-21T15:52:41.629Z,27.65
2019-03-21T15:55:13.781Z,28.35
2019-03-21T15:57:46.076Z,28.35
2019-03-21T16:00:30.686Z,27.48
2019-03-21T16:03:02.934Z,27.18
2019-03-21T16:05:35.326Z,27.42
2019-03-21T16:08:09.310Z,29.11
2019-03-21T16:10:42.869Z,28.58
2019-03-21T16:13:14.997Z,28.72
2019-03-21T16:15:47.067Z,28.26
2019-03-21T16:18:20.201Z,29.70
2019-03-21T16:20:52.684Z,30.32
2019-03-21T16:23:24.878Z,30.75
2019-03-21T16:25:56.955Z,31.50
2019-03-21T16:28:29.181Z,31.42
2019-03-21T16:31:01.612Z,32.20
2019-03-21T16:33:33.683Z,32.27
2019-03-21T16:36:05.903Z,33.04
2019-03-21T16:38:37.990Z,34.57
2019-03-21T16:41:10.225Z,34.45
2019-03-21T16:43:42.223Z,35.36
2019-03-21T16:46:14.795Z,35.49
2019-03-21T16:48:46.967Z,35.17
2019-03-21T16:51:19.641Z,35.78
2019-03-21T16:53:51.647Z,36.50
2019-03-21T16:56:24.118Z,36.02
2019-03-21T16:58:58.700Z,37.35
2019-03-21T17:01:30.215Z,38.07
2019-03-21T17:04:02.351Z,39.52
2019-03-21T17:06:34.788Z,39.87
2019-03-21T17:09:09.893Z,39.85
2019-03-21T17:11:41.997Z,40.76
2019-03-21T17:14:14.117Z,42.24
2019-03-21T17:16:46.206Z,44.88
2019-03-21T17:19:18.265Z,46.13
2019-03-21T17:21:52.150Z,47.38
2019-03-21T17:24:29.644Z,48.52
2019-03-21T17:26:59.012Z,50.21
2019-03-21T17:29:31.156Z,51.38
2019-03-21T17:32:06.431Z,51.78
2019-03-21T17:34:38.103Z,53.04
2019-03-21T17:37:11.201Z,52.56
2019-03-21T17:39:43.471Z,51.81
2019-03-21T17:42:15.604Z,51.11
2019-03-21T17:44:47.926Z,50.63
2019-03-21T17:47:19.924Z,51.13
2019-03-21T17:49:52.033Z,52.29
2019-03-21T17:52:24.194Z,53.64
2019-03-21T17:54:56.486Z,54.46
2019-03-21T17:57:34.424Z,55.08
2019-03-21T18:00:02.510Z,55.14
2019-03-21T18:02:34.879Z,55.32
2019-03-21T18:05:08.051Z,55.26
2019-03-21T18:07:40.262Z,55.30
2019-03-21T18:10:26.151Z,56.28
2019-03-21T18:12:58.905Z,56.88
2019-03-21T18:15:31.506Z,56.77
2019-03-21T18:18:04.220Z,57.61
2019-03-21T18:20:36.423Z,57.80
2019-03-21T18:23:08.982Z,58.34
2019-03-21T18:25:41.374Z,57.83
2019-03-21T18:28:14.525Z,57.84
2019-03-21T18:30:47.051Z,57.63
2019-03-21T18:33:19.508Z,58.51
2019-03-21T18:35:51.691Z,58.72
2019-03-21T18:38:23.899Z,59.13
2019-03-21T18:40:56.016Z,59.30
2019-03-21T18:43:28.253Z,58.92
2019-03-21T18:46:00.991Z,59.03
2019-03-21T18:48:33.132Z,59.38
2019-03-21T18:51:05.554Z,59.30
2019-03-21T18:53:37.691Z,58.98
2019-03-21T18:56:09.836Z,59.51
2019-03-21T18:58:41.958Z,59.91
2019-03-21T19:01:14.112Z,61.22
2019-03-21T19:03:46.189Z,60.27
2019-03-21T19:06:18.446Z,60.14
2019-03-21T19:08:50.553Z,60.23
2019-03-21T19:11:22.617Z,59.91
2019-03-21T19:13:54.679Z,59.86
2019-03-21T19:16:26.784Z,59.86
2019-03-21T19:18:58.859Z,59.66
2019-03-21T19:21:31.439Z,59.59
2019-03-21T19:24:03.725Z,58.94
2019-03-21T19:26:36.557Z,58.55
2019-03-21T19:29:08.711Z,58.37
2019-03-21T19:31:40.826Z,59.70
2019-03-21T19:34:13.095Z,60.80
2019-03-21T19:36:45.085Z,60.47
2019-03-21T19:39:17.233Z,60.96
2019-03-21T19:41:49.375Z,61.06
2019-03-21T19:44:21.471Z,61.43
2019-03-21T19:46:54.039Z,61.86
2019-03-21T19:49:26.101Z,62.13
2019-03-21T19:51:58.244Z,63.08
2019-03-21T19:54:32.286Z,62.56
2019-03-21T19:57:04.650Z,61.57
2019-03-21T19:59:36.900Z,61.80
2019-03-21T20:02:09.506Z,62.74
2019-03-21T20:04:41.668Z,62.85
2019-03-21T20:07:14.087Z,63.21
2019-03-21T20:09:46.229Z,62.86
2019-03-21T20:12:18.362Z,61.48
2019-03-21T20:14:50.955Z,62.10
2019-03-21T20:17:23.286Z,62.65
2019-03-21T20:19:55.694Z,63.07
2019-03-21T20:22:27.914Z,62.23
2019-03-21T20:25:00.044Z,62.38
2019-03-21T20:27:32.255Z,62.02
2019-03-21T20:30:05.139Z,62.65
2019-03-21T20:32:38.852Z,62.78
2019-03-21T20:35:11.673Z,61.18
2019-03-21T20:37:44.219Z,60.62
2019-03-21T20:40:17.854Z,61.22
2019-03-21T20:42:50.038Z,61.84
2019-03-21T20:45:23.921Z,61.54
2019-03-21T20:47:56.151Z,62.55
2019-03-21T20:50:28.298Z,62.95
2019-03-21T20:53:00.831Z,62.74
2019-03-21T20:55:33.019Z,62.54
2019-03-21T20:58:05.220Z,62.37
2019-03-21T21:00:37.368Z,61.00
2019-03-21T21:03:09.648Z,59.51
2019-03-21T21:05:41.828Z,58.07
2019-03-21T21:08:13.972Z,57.09
2019-03-21T21:10:46.269Z,56.52
2019-03-21T21:13:18.420Z,56.49
2019-03-21T21:15:50.523Z,58.66
2019-03-21T21:18:23.235Z,60.82
2019-03-21T21:20:55.794Z,62.74
2019-03-21T21:23:27.975Z,63.79
2019-03-21T21:26:05.548Z,64.64
2019-03-21T21:28:34.858Z,63.38
2019-03-21T21:31:07.249Z,63.44
2019-03-21T21:33:39.339Z,64.04
2019-03-21T21:36:21.628Z,63.88
2019-03-21T21:38:46.806Z,63.62
2019-03-21T21:41:18.947Z,64.18
2019-03-21T21:43:51.010Z,63.88
2019-03-21T21:46:23.064Z,66.00
2019-03-21T21:48:55.249Z,66.79
2019-03-21T21:51:27.625Z,66.62
2019-03-21T21:53:59.676Z,66.98
2019-03-21T21:56:31.862Z,66.58
2019-03-21T21:59:04.304Z,66.83
2019-03-21T22:01:36.452Z,66.96
2019-03-21T22:04:08.644Z,67.60
2019-03-21T22:06:40.783Z,67.63
2019-03-21T22:09:13.097Z,66.65
2019-03-21T22:11:45.237Z,66.11
2019-03-21T22:14:17.536Z,65.70
2019-03-21T22:16:49.594Z,65.32
2019-03-21T22:19:21.730Z,65.97
2019-03-21T22:21:53.948Z,66.48
2019-03-21T22:24:26.184Z,60.67
2019-03-21T22:26:59.312Z,59.47
2019-03-21T22:29:31.779Z,58.67
2019-03-21T22:32:04.053Z,57.66
2019-03-21T22:34:36.233Z,57.09
2019-03-21T22:37:08.244Z,56.20
2019-03-21T22:39:40.321Z,55.50
2019-03-21T22:42:12.758Z,56.53
2019-03-21T22:44:45.009Z,58.55
2019-03-21T22:47:17.123Z,57.41
2019-03-21T22:49:49.194Z,60.90
2019-03-21T22:52:21.849Z,62.16
2019-03-21T22:54:53.834Z,62.13
2019-03-21T22:57:26.032Z,62.58
2019-03-21T22:59:59.399Z,62.80
2019-03-21T23:02:31.649Z,61.60
2019-03-21T23:05:04.368Z,59.65
2019-03-21T23:07:37.008Z,62.46
2019-03-21T23:10:09.461Z,63.70
2019-03-21T23:12:41.806Z,61.82
2019-03-21T23:15:14.350Z,62.16
2019-03-21T23:17:46.844Z,62.54
2019-03-21T23:20:19.459Z,60.48
2019-03-21T23:22:51.880Z,58.44
2019-03-21T23:25:24.076Z,59.76
2019-03-21T23:27:56.662Z,58.89
2019-03-21T23:30:28.735Z,57.68
2019-03-21T23:33:00.866Z,57.36
2019-03-21T23:35:33.234Z,57.10
2019-03-21T23:38:05.488Z,57.21
2019-03-21T23:40:37.612Z,57.72
2019-03-21T23:43:09.836Z,57.05
2019-03-21T23:45:42.099Z,56.78
2019-03-21T23:48:14.278Z,56.97
2019-03-21T23:50:46.294Z,56.80
2019-03-21T23:53:18.730Z,56.72
2019-03-21T23:55:50.936Z,56.66
2019-03-21T23:58:23.020Z,56.80
